sensor_id;sensor_type;location;lat;lon;timestamp;P1;durP1;ratioP1;P2;durP2;ratioP2
2326;SDS011;1174;51.588;7.328;2023-04-01T00:00:58;1.00;;;0.80;;
2326;SDS011;1174;51.588;7.328;2023-04-01T00:03:27;1.20;;;1.10;;
2326;SDS011;1174;51.588;7.328;2023-04-01T00:05:54;1.63;;;0.87;;
2326;SDS011;1174;51.588;7.328;2023-04-01T00:08:22;3.10;;;1.27;;
2326;SDS011;1174;51.588;7.328;2023-04-01T00:10:51;0.90;;;0.77;;
2326;SDS011;1174;51.588;7.328;2023-04-01T00:13:18;1.70;;;1.00;;
2326;SDS011;1174;51.588;7.328;2023-04-01T00:15:46;1.20;;;1.10;;
2326;SDS011;1174;51.588;7.328;2023-04-01T00:18:13;3.07;;;0.93;;
2326;SDS011;1174;51.588;7.328;2023-04-01T00:20:42;1.03;;;0.90;;
2326;SDS011;1174;51.588;7.328;2023-04-01T00:23:10;1.27;;;1.03;;
2326;SDS011;1174;51.588;7.328;2023-04-01T00:25:37;2.20;;;1.40;;
2326;SDS011;1174;51.588;7.328;2023-04-01T00:28:07;3.53;;;1.00;;
2326;SDS011;1174;51.588;7.328;2023-04-01T00:30:35;1.33;;;1.00;;
2326;SDS011;1174;51.588;7.328;2023-04-01T00:33:02;3.40;;;1.20;;
2326;SDS011;1174;51.588;7.328;2023-04-01T00:35:30;1.20;;;1.10;;
2326;SDS011;1174;51.588;7.328;2023-04-01T00:37:57;2.07;;;1.40;;
2326;SDS011;1174;51.588;7.328;2023-04-01T00:40:26;2.70;;;1.10;;
2326;SDS011;1174;51.588;7.328;2023-04-01T00:42:55;1.53;;;1.00;;
2326;SDS011;1174;51.588;7.328;2023-04-01T00:45:31;1.27;;;1.17;;
2326;SDS011;1174;51.588;7.328;2023-04-01T00:48:01;3.20;;;1.43;;
2326;SDS011;1174;51.588;7.328;2023-04-01T00:50:31;1.90;;;1.23;;
2326;SDS011;1174;51.588;7.328;2023-04-01T00:53:00;1.53;;;0.90;;
2326;SDS011;1174;51.588;7.328;2023-04-01T00:55:28;2.70;;;1.33;;
2326;SDS011;1174;51.588;7.328;2023-04-01T00:58:00;3.77;;;0.90;;
2326;SDS011;1174;51.588;7.328;2023-04-01T01:00:32;1.53;;;0.90;;
2326;SDS011;1174;51.588;7.328;2023-04-01T01:03:00;3.23;;;0.77;;
2326;SDS011;1174;51.588;7.328;2023-04-01T01:05:31;1.20;;;0.90;;
2326;SDS011;1174;51.588;7.328;2023-04-01T01:08:10;1.63;;;1.47;;
2326;SDS011;1174;51.588;7.328;2023-04-01T01:10:46;1.47;;;1.20;;
2326;SDS011;1174;51.588;7.328;2023-04-01T01:13:17;1.93;;;1.10;;
2326;SDS011;1174;51.588;7.328;2023-04-01T01:15:53;1.43;;;1.30;;
2326;SDS011;1174;51.588;7.328;2023-04-01T01:18:27;1.70;;;1.40;;
2326;SDS011;1174;51.588;7.328;2023-04-01T01:21:06;1.30;;;1.10;;
2326;SDS011;1174;51.588;7.328;2023-04-01T01:26:59;1.70;;;1.07;;
2326;SDS011;1174;51.588;7.328;2023-04-01T01:29:35;1.50;;;1.10;;
2326;SDS011;1174;51.588;7.328;2023-04-01T01:32:18;1.37;;;1.27;;
2326;SDS011;1174;51.588;7.328;2023-04-01T01:37:58;0.90;;;0.70;;
2326;SDS011;1174;51.588;7.328;2023-04-01T01:40:27;1.50;;;0.90;;
2326;SDS011;1174;51.588;7.328;2023-04-01T01:42:58;1.50;;;0.90;;
2326;SDS011;1174;51.588;7.328;2023-04-01T01:45:29;3.00;;;1.00;;
2326;SDS011;1174;51.588;7.328;2023-04-01T01:48:00;1.00;;;0.83;;
2326;SDS011;1174;51.588;7.328;2023-04-01T01:50:30;2.10;;;1.40;;
2326;SDS011;1174;51.588;7.328;2023-04-01T01:53:04;1.00;;;0.70;;
2326;SDS011;1174;51.588;7.328;2023-04-01T01:55:33;2.37;;;1.10;;
2326;SDS011;1174;51.588;7.328;2023-04-01T01:58:02;2.70;;;1.10;;
2326;SDS011;1174;51.588;7.328;2023-04-01T02:00:34;1.70;;;1.30;;
2326;SDS011;1174;51.588;7.328;2023-04-01T02:03:02;1.17;;;0.90;;
2326;SDS011;1174;51.588;7.328;2023-04-01T02:05:31;2.50;;;1.13;;
2326;SDS011;1174;51.588;7.328;2023-04-01T02:08:00;1.17;;;0.83;;
2326;SDS011;1174;51.588;7.328;2023-04-01T02:10:31;1.00;;;0.83;;
2326;SDS011;1174;51.588;7.328;2023-04-01T02:13:03;1.17;;;1.07;;
2326;SDS011;1174;51.588;7.328;2023-04-01T02:15:35;1.77;;;1.10;;
2326;SDS011;1174;51.588;7.328;2023-04-01T02:18:08;3.63;;;1.10;;
2326;SDS011;1174;51.588;7.328;2023-04-01T02:20:38;1.30;;;1.07;;
2326;SDS011;1174;51.588;7.328;2023-04-01T02:23:06;5.00;;;0.90;;
2326;SDS011;1174;51.588;7.328;2023-04-01T02:25:35;1.50;;;1.40;;
2326;SDS011;1174;51.588;7.328;2023-04-01T02:28:04;1.20;;;1.10;;
2326;SDS011;1174;51.588;7.328;2023-04-01T02:30:33;1.00;;;0.80;;
2326;SDS011;1174;51.588;7.328;2023-04-01T02:33:03;1.00;;;0.70;;
2326;SDS011;1174;51.588;7.328;2023-04-01T02:35:32;0.93;;;0.70;;
2326;SDS011;1174;51.588;7.328;2023-04-01T02:38:03;1.60;;;0.90;;
2326;SDS011;1174;51.588;7.328;2023-04-01T02:40:40;1.00;;;0.80;;
2326;SDS011;1174;51.588;7.328;2023-04-01T02:43:08;3.93;;;1.30;;
2326;SDS011;1174;51.588;7.328;2023-04-01T02:45:36;1.40;;;0.90;;
2326;SDS011;1174;51.588;7.328;2023-04-01T02:48:03;1.23;;;0.90;;
2326;SDS011;1174;51.588;7.328;2023-04-01T02:50:30;1.63;;;0.90;;
2326;SDS011;1174;51.588;7.328;2023-04-01T02:52:59;1.20;;;1.00;;
2326;SDS011;1174;51.588;7.328;2023-04-01T02:55:29;1.07;;;0.97;;
2326;SDS011;1174;51.588;7.328;2023-04-01T02:57:56;1.53;;;1.10;;
2326;SDS011;1174;51.588;7.328;2023-04-01T03:00:23;1.80;;;1.00;;
2326;SDS011;1174;51.588;7.328;2023-04-01T03:02:50;1.03;;;0.80;;
2326;SDS011;1174;51.588;7.328;2023-04-01T03:05:17;1.33;;;1.23;;
2326;SDS011;1174;51.588;7.328;2023-04-01T03:07:44;1.00;;;0.80;;
2326;SDS011;1174;51.588;7.328;2023-04-01T03:10:11;1.00;;;0.77;;
2326;SDS011;1174;51.588;7.328;2023-04-01T03:12:40;1.00;;;0.80;;
2326;SDS011;1174;51.588;7.328;2023-04-01T03:15:08;1.07;;;0.83;;
2326;SDS011;1174;51.588;7.328;2023-04-01T03:17:36;1.50;;;0.90;;
2326;SDS011;1174;51.588;7.328;2023-04-01T03:20:04;1.00;;;0.80;;
2326;SDS011;1174;51.588;7.328;2023-04-01T03:22:33;1.13;;;0.90;;
2326;SDS011;1174;51.588;7.328;2023-04-01T03:25:00;1.00;;;0.90;;
2326;SDS011;1174;51.588;7.328;2023-04-01T03:27:27;2.90;;;1.47;;
2326;SDS011;1174;51.588;7.328;2023-04-01T03:29:56;1.20;;;0.93;;
2326;SDS011;1174;51.588;7.328;2023-04-01T03:32:23;1.13;;;0.87;;
2326;SDS011;1174;51.588;7.328;2023-04-01T03:34:50;1.07;;;0.97;;
2326;SDS011;1174;51.588;7.328;2023-04-01T03:37:17;1.20;;;0.90;;
2326;SDS011;1174;51.588;7.328;2023-04-01T03:39:43;1.20;;;0.90;;
2326;SDS011;1174;51.588;7.328;2023-04-01T03:42:10;1.77;;;1.00;;
2326;SDS011;1174;51.588;7.328;2023-04-01T03:44:37;1.30;;;0.97;;
2326;SDS011;1174;51.588;7.328;2023-04-01T03:47:06;1.30;;;1.07;;
2326;SDS011;1174;51.588;7.328;2023-04-01T03:49:34;1.20;;;1.00;;
2326;SDS011;1174;51.588;7.328;2023-04-01T03:52:01;0.90;;;0.70;;
2326;SDS011;1174;51.588;7.328;2023-04-01T03:54:28;1.63;;;0.80;;
2326;SDS011;1174;51.588;7.328;2023-04-01T03:56:55;1.10;;;0.80;;
2326;SDS011;1174;51.588;7.328;2023-04-01T03:59:22;1.20;;;1.10;;
2326;SDS011;1174;51.588;7.328;2023-04-01T04:01:50;1.13;;;0.93;;
2326;SDS011;1174;51.588;7.328;2023-04-01T04:04:18;2.90;;;0.80;;
2326;SDS011;1174;51.588;7.328;2023-04-01T04:06:45;1.77;;;1.47;;
2326;SDS011;1174;51.588;7.328;2023-04-01T04:09:12;1.27;;;0.97;;
2326;SDS011;1174;51.588;7.328;2023-04-01T04:11:38;1.73;;;1.07;;
2326;SDS011;1174;51.588;7.328;2023-04-01T04:14:05;1.60;;;1.00;;
2326;SDS011;1174;51.588;7.328;2023-04-01T04:16:34;1.53;;;1.17;;
2326;SDS011;1174;51.588;7.328;2023-04-01T04:19:02;1.13;;;0.87;;
2326;SDS011;1174;51.588;7.328;2023-04-01T04:21:31;1.53;;;0.97;;
2326;SDS011;1174;51.588;7.328;2023-04-01T04:23:58;1.20;;;1.10;;
2326;SDS011;1174;51.588;7.328;2023-04-01T04:26:25;1.30;;;1.07;;
2326;SDS011;1174;51.588;7.328;2023-04-01T04:28:54;1.83;;;0.97;;
2326;SDS011;1174;51.588;7.328;2023-04-01T04:31:22;1.20;;;1.07;;
2326;SDS011;1174;51.588;7.328;2023-04-01T04:33:50;1.67;;;1.53;;
2326;SDS011;1174;51.588;7.328;2023-04-01T04:36:18;6.73;;;1.40;;
2326;SDS011;1174;51.588;7.328;2023-04-01T04:38:47;2.50;;;1.37;;
2326;SDS011;1174;51.588;7.328;2023-04-01T04:41:14;1.43;;;0.97;;
2326;SDS011;1174;51.588;7.328;2023-04-01T04:43:47;4.70;;;1.07;;
2326;SDS011;1174;51.588;7.328;2023-04-01T04:46:16;2.07;;;1.07;;
2326;SDS011;1174;51.588;7.328;2023-04-01T04:48:43;1.00;;;0.70;;
2326;SDS011;1174;51.588;7.328;2023-04-01T04:51:12;1.30;;;0.80;;
2326;SDS011;1174;51.588;7.328;2023-04-01T04:53:41;1.00;;;0.87;;
2326;SDS011;1174;51.588;7.328;2023-04-01T04:56:09;1.53;;;1.43;;
2326;SDS011;1174;51.588;7.328;2023-04-01T04:58:36;1.10;;;1.00;;
2326;SDS011;1174;51.588;7.328;2023-04-01T05:01:08;1.27;;;0.83;;
2326;SDS011;1174;51.588;7.328;2023-04-01T05:03:36;1.17;;;1.07;;
2326;SDS011;1174;51.588;7.328;2023-04-01T05:06:04;1.60;;;1.20;;
2326;SDS011;1174;51.588;7.328;2023-04-01T05:08:32;2.47;;;1.33;;
2326;SDS011;1174;51.588;7.328;2023-04-01T05:10:59;2.17;;;1.10;;
2326;SDS011;1174;51.588;7.328;2023-04-01T05:13:27;1.00;;;0.83;;
2326;SDS011;1174;51.588;7.328;2023-04-01T05:15:54;1.00;;;0.80;;
2326;SDS011;1174;51.588;7.328;2023-04-01T05:18:24;2.20;;;0.90;;
2326;SDS011;1174;51.588;7.328;2023-04-01T05:20:51;1.30;;;1.10;;
2326;SDS011;1174;51.588;7.328;2023-04-01T05:23:20;0.93;;;0.80;;
2326;SDS011;1174;51.588;7.328;2023-04-01T05:25:48;1.03;;;0.90;;
2326;SDS011;1174;51.588;7.328;2023-04-01T05:28:16;1.30;;;1.07;;
2326;SDS011;1174;51.588;7.328;2023-04-01T05:30:44;1.63;;;1.20;;
2326;SDS011;1174;51.588;7.328;2023-04-01T05:33:12;1.30;;;1.10;;
2326;SDS011;1174;51.588;7.328;2023-04-01T05:35:40;1.40;;;0.93;;
2326;SDS011;1174;51.588;7.328;2023-04-01T05:38:07;1.50;;;1.23;;
2326;SDS011;1174;51.588;7.328;2023-04-01T05:40:34;1.57;;;0.90;;
2326;SDS011;1174;51.588;7.328;2023-04-01T05:43:01;1.80;;;1.07;;
2326;SDS011;1174;51.588;7.328;2023-04-01T05:45:28;1.00;;;0.80;;
2326;SDS011;1174;51.588;7.328;2023-04-01T05:47:56;1.60;;;1.00;;
2326;SDS011;1174;51.588;7.328;2023-04-01T05:50:24;1.57;;;1.00;;
2326;SDS011;1174;51.588;7.328;2023-04-01T05:52:51;1.10;;;1.00;;
2326;SDS011;1174;51.588;7.328;2023-04-01T05:55:19;2.43;;;0.90;;
2326;SDS011;1174;51.588;7.328;2023-04-01T05:57:46;6.13;;;1.20;;
2326;SDS011;1174;51.588;7.328;2023-04-01T06:00:15;0.93;;;0.80;;
2326;SDS011;1174;51.588;7.328;2023-04-01T06:02:44;1.70;;;0.90;;
2326;SDS011;1174;51.588;7.328;2023-04-01T06:05:15;1.47;;;1.10;;
2326;SDS011;1174;51.588;7.328;2023-04-01T06:07:44;1.43;;;0.90;;
2326;SDS011;1174;51.588;7.328;2023-04-01T06:10:13;1.00;;;0.80;;
2326;SDS011;1174;51.588;7.328;2023-04-01T06:12:50;1.50;;;1.10;;
2326;SDS011;1174;51.588;7.328;2023-04-01T06:15:29;2.60;;;1.87;;
2326;SDS011;1174;51.588;7.328;2023-04-01T06:18:31;1.77;;;1.30;;
2326;SDS011;1174;51.588;7.328;2023-04-01T06:21:23;2.20;;;1.00;;
2326;SDS011;1174;51.588;7.328;2023-04-01T06:24:12;1.20;;;1.00;;
2326;SDS011;1174;51.588;7.328;2023-04-01T06:26:53;1.20;;;1.10;;
2326;SDS011;1174;51.588;7.328;2023-04-01T06:32:31;2.50;;;1.47;;
2326;SDS011;1174;51.588;7.328;2023-04-01T06:35:24;1.57;;;1.03;;
2326;SDS011;1174;51.588;7.328;2023-04-01T06:38:18;2.90;;;1.40;;
2326;SDS011;1174;51.588;7.328;2023-04-01T06:41:00;1.63;;;1.50;;
2326;SDS011;1174;51.588;7.328;2023-04-01T06:43:54;2.10;;;1.77;;
2326;SDS011;1174;51.588;7.328;2023-04-01T06:46:33;1.30;;;0.90;;
2326;SDS011;1174;51.588;7.328;2023-04-01T06:49:15;1.30;;;1.10;;
2326;SDS011;1174;51.588;7.328;2023-04-01T06:51:57;2.23;;;1.20;;
2326;SDS011;1174;51.588;7.328;2023-04-01T06:54:31;2.03;;;1.00;;
2326;SDS011;1174;51.588;7.328;2023-04-01T06:57:05;2.30;;;1.40;;
2326;SDS011;1174;51.588;7.328;2023-04-01T06:59:45;1.00;;;0.70;;
2326;SDS011;1174;51.588;7.328;2023-04-01T07:02:16;1.57;;;1.10;;
2326;SDS011;1174;51.588;7.328;2023-04-01T07:04:51;4.20;;;2.57;;
2326;SDS011;1174;51.588;7.328;2023-04-01T07:07:21;1.70;;;1.20;;
2326;SDS011;1174;51.588;7.328;2023-04-01T07:09:57;1.43;;;0.80;;
2326;SDS011;1174;51.588;7.328;2023-04-01T07:12:30;1.10;;;0.90;;
2326;SDS011;1174;51.588;7.328;2023-04-01T07:15:05;2.97;;;1.10;;
2326;SDS011;1174;51.588;7.328;2023-04-01T07:17:42;1.37;;;1.10;;
2326;SDS011;1174;51.588;7.328;2023-04-01T07:20:12;1.90;;;1.13;;
2326;SDS011;1174;51.588;7.328;2023-04-01T07:22:45;1.30;;;1.10;;
2326;SDS011;1174;51.588;7.328;2023-04-01T07:25:17;1.40;;;1.00;;
2326;SDS011;1174;51.588;7.328;2023-04-01T07:27:47;1.00;;;0.83;;
2326;SDS011;1174;51.588;7.328;2023-04-01T07:30:16;2.17;;;1.10;;
2326;SDS011;1174;51.588;7.328;2023-04-01T07:32:46;2.00;;;1.63;;
2326;SDS011;1174;51.588;7.328;2023-04-01T07:35:17;1.67;;;1.37;;
2326;SDS011;1174;51.588;7.328;2023-04-01T07:37:55;1.77;;;1.27;;
2326;SDS011;1174;51.588;7.328;2023-04-01T07:40:34;2.03;;;1.40;;
2326;SDS011;1174;51.588;7.328;2023-04-01T07:46:17;1.50;;;1.40;;
2326;SDS011;1174;51.588;7.328;2023-04-01T07:48:51;1.63;;;1.20;;
2326;SDS011;1174;51.588;7.328;2023-04-01T07:51:26;2.47;;;1.80;;
2326;SDS011;1174;51.588;7.328;2023-04-01T07:53:58;2.90;;;2.30;;
2326;SDS011;1174;51.588;7.328;2023-04-01T07:56:34;5.53;;;1.83;;
2326;SDS011;1174;51.588;7.328;2023-04-01T07:59:11;3.73;;;3.43;;
2326;SDS011;1174;51.588;7.328;2023-04-01T08:01:48;2.90;;;2.13;;
2326;SDS011;1174;51.588;7.328;2023-04-01T08:04:34;2.03;;;1.30;;
2326;SDS011;1174;51.588;7.328;2023-04-01T08:07:13;2.67;;;2.37;;
2326;SDS011;1174;51.588;7.328;2023-04-01T08:09:44;2.53;;;1.80;;
2326;SDS011;1174;51.588;7.328;2023-04-01T08:12:24;2.83;;;2.40;;
2326;SDS011;1174;51.588;7.328;2023-04-01T08:15:04;3.53;;;2.10;;
2326;SDS011;1174;51.588;7.328;2023-04-01T08:17:47;3.67;;;1.67;;
2326;SDS011;1174;51.588;7.328;2023-04-01T08:20:25;3.53;;;1.93;;
2326;SDS011;1174;51.588;7.328;2023-04-01T08:22:59;2.43;;;1.93;;
2326;SDS011;1174;51.588;7.328;2023-04-01T08:25:30;1.90;;;1.50;;
2326;SDS011;1174;51.588;7.328;2023-04-01T08:28:08;3.13;;;1.90;;
2326;SDS011;1174;51.588;7.328;2023-04-01T08:30:40;2.83;;;1.80;;
2326;SDS011;1174;51.588;7.328;2023-04-01T08:33:11;3.57;;;1.60;;
2326;SDS011;1174;51.588;7.328;2023-04-01T08:35:42;4.00;;;2.53;;
2326;SDS011;1174;51.588;7.328;2023-04-01T08:38:16;4.20;;;2.30;;
2326;SDS011;1174;51.588;7.328;2023-04-01T08:40:53;1.63;;;1.43;;
2326;SDS011;1174;51.588;7.328;2023-04-01T08:43:29;3.60;;;2.37;;
2326;SDS011;1174;51.588;7.328;2023-04-01T08:46:27;2.80;;;1.47;;
2326;SDS011;1174;51.588;7.328;2023-04-01T08:49:15;3.63;;;1.87;;
2326;SDS011;1174;51.588;7.328;2023-04-01T08:51:57;2.43;;;1.80;;
2326;SDS011;1174;51.588;7.328;2023-04-01T08:57:42;2.03;;;1.40;;
2326;SDS011;1174;51.588;7.328;2023-04-01T09:00:21;2.50;;;2.00;;
2326;SDS011;1174;51.588;7.328;2023-04-01T09:02:58;6.30;;;2.97;;
2326;SDS011;1174;51.588;7.328;2023-04-01T09:05:56;3.13;;;2.43;;
2326;SDS011;1174;51.588;7.328;2023-04-01T09:08:50;7.33;;;3.00;;
2326;SDS011;1174;51.588;7.328;2023-04-01T09:11:30;2.03;;;1.67;;
2326;SDS011;1174;51.588;7.328;2023-04-01T09:14:21;2.13;;;1.67;;
2326;SDS011;1174;51.588;7.328;2023-04-01T09:17:03;6.20;;;2.23;;
2326;SDS011;1174;51.588;7.328;2023-04-01T09:20:00;4.50;;;3.70;;
2326;SDS011;1174;51.588;7.328;2023-04-01T09:22:48;3.17;;;2.87;;
2326;SDS011;1174;51.588;7.328;2023-04-01T09:28:20;4.10;;;2.57;;
2326;SDS011;1174;51.588;7.328;2023-04-01T09:31:01;4.07;;;3.30;;
2326;SDS011;1174;51.588;7.328;2023-04-01T09:36:58;6.20;;;2.77;;
2326;SDS011;1174;51.588;7.328;2023-04-01T09:39:42;3.93;;;2.70;;
2326;SDS011;1174;51.588;7.328;2023-04-01T09:45:15;2.30;;;1.80;;
2326;SDS011;1174;51.588;7.328;2023-04-01T09:50:48;5.03;;;3.00;;
2326;SDS011;1174;51.588;7.328;2023-04-01T09:53:28;4.90;;;2.40;;
2326;SDS011;1174;51.588;7.328;2023-04-01T09:56:14;3.90;;;2.87;;
2326;SDS011;1174;51.588;7.328;2023-04-01T10:05:33;4.07;;;2.37;;
2326;SDS011;1174;51.588;7.328;2023-04-01T10:11:43;3.43;;;2.40;;
2326;SDS011;1174;51.588;7.328;2023-04-01T10:17:54;4.50;;;2.93;;
2326;SDS011;1174;51.588;7.328;2023-04-01T10:20:54;4.90;;;3.30;;
2326;SDS011;1174;51.588;7.328;2023-04-01T10:23:37;4.60;;;3.03;;
2326;SDS011;1174;51.588;7.328;2023-04-01T10:26:17;3.47;;;2.73;;
2326;SDS011;1174;51.588;7.328;2023-04-01T10:29:25;6.07;;;4.27;;
2326;SDS011;1174;51.588;7.328;2023-04-01T10:32:27;6.80;;;4.37;;
2326;SDS011;1174;51.588;7.328;2023-04-01T10:39:08;4.23;;;2.70;;
2326;SDS011;1174;51.588;7.328;2023-04-01T10:45:13;3.73;;;2.83;;
2326;SDS011;1174;51.588;7.328;2023-04-01T10:48:10;5.40;;;3.07;;
2326;SDS011;1174;51.588;7.328;2023-04-01T10:51:12;4.33;;;2.60;;
2326;SDS011;1174;51.588;7.328;2023-04-01T10:53:57;5.93;;;2.90;;
2326;SDS011;1174;51.588;7.328;2023-04-01T10:56:44;7.27;;;4.10;;
2326;SDS011;1174;51.588;7.328;2023-04-01T10:59:28;5.53;;;2.70;;
2326;SDS011;1174;51.588;7.328;2023-04-01T11:02:24;4.17;;;2.80;;
2326;SDS011;1174;51.588;7.328;2023-04-01T11:05:21;3.43;;;2.30;;
2326;SDS011;1174;51.588;7.328;2023-04-01T11:08:33;3.90;;;2.47;;
2326;SDS011;1174;51.588;7.328;2023-04-01T11:11:44;5.60;;;3.20;;
2326;SDS011;1174;51.588;7.328;2023-04-01T11:20:45;6.53;;;3.13;;
2326;SDS011;1174;51.588;7.328;2023-04-01T11:23:36;3.37;;;2.33;;
2326;SDS011;1174;51.588;7.328;2023-04-01T11:26:19;3.30;;;2.80;;
2326;SDS011;1174;51.588;7.328;2023-04-01T11:29:08;5.70;;;2.50;;
2326;SDS011;1174;51.588;7.328;2023-04-01T11:32:02;4.93;;;4.43;;
2326;SDS011;1174;51.588;7.328;2023-04-01T11:34:43;9.50;;;3.80;;
2326;SDS011;1174;51.588;7.328;2023-04-01T11:37:25;3.03;;;2.30;;
2326;SDS011;1174;51.588;7.328;2023-04-01T11:40:03;1.93;;;1.70;;
2326;SDS011;1174;51.588;7.328;2023-04-01T11:42:40;4.60;;;3.83;;
2326;SDS011;1174;51.588;7.328;2023-04-01T11:45:20;3.60;;;2.80;;
2326;SDS011;1174;51.588;7.328;2023-04-01T11:48:11;5.10;;;3.80;;
2326;SDS011;1174;51.588;7.328;2023-04-01T11:51:05;5.27;;;3.30;;
2326;SDS011;1174;51.588;7.328;2023-04-01T11:53:54;3.73;;;3.37;;
2326;SDS011;1174;51.588;7.328;2023-04-01T11:56:32;6.03;;;4.10;;
2326;SDS011;1174;51.588;7.328;2023-04-01T12:02:24;7.37;;;4.70;;
2326;SDS011;1174;51.588;7.328;2023-04-01T12:05:19;12.67;;;6.50;;
2326;SDS011;1174;51.588;7.328;2023-04-01T12:08:09;8.30;;;6.27;;
2326;SDS011;1174;51.588;7.328;2023-04-01T12:10:44;6.40;;;5.50;;
2326;SDS011;1174;51.588;7.328;2023-04-01T12:13:18;9.27;;;6.47;;
2326;SDS011;1174;51.588;7.328;2023-04-01T12:16:03;10.60;;;6.20;;
2326;SDS011;1174;51.588;7.328;2023-04-01T12:18:41;4.27;;;3.30;;
2326;SDS011;1174;51.588;7.328;2023-04-01T12:21:15;5.53;;;4.37;;
2326;SDS011;1174;51.588;7.328;2023-04-01T12:23:59;6.20;;;5.00;;
2326;SDS011;1174;51.588;7.328;2023-04-01T12:29:53;7.53;;;3.70;;
2326;SDS011;1174;51.588;7.328;2023-04-01T12:32:30;5.70;;;3.50;;
2326;SDS011;1174;51.588;7.328;2023-04-01T12:35:20;5.93;;;3.60;;
2326;SDS011;1174;51.588;7.328;2023-04-01T12:40:51;4.77;;;3.30;;
2326;SDS011;1174;51.588;7.328;2023-04-01T12:46:26;3.90;;;3.13;;
2326;SDS011;1174;51.588;7.328;2023-04-01T12:57:43;5.50;;;3.20;;
2326;SDS011;1174;51.588;7.328;2023-04-01T13:00:39;4.40;;;2.30;;
2326;SDS011;1174;51.588;7.328;2023-04-01T13:03:28;8.77;;;3.40;;
2326;SDS011;1174;51.588;7.328;2023-04-01T13:06:19;6.20;;;3.47;;
2326;SDS011;1174;51.588;7.328;2023-04-01T13:09:00;3.60;;;2.10;;
2326;SDS011;1174;51.588;7.328;2023-04-01T13:11:36;3.30;;;3.00;;
2326;SDS011;1174;51.588;7.328;2023-04-01T13:14:19;4.40;;;4.00;;
2326;SDS011;1174;51.588;7.328;2023-04-01T13:17:10;2.53;;;1.93;;
2326;SDS011;1174;51.588;7.328;2023-04-01T13:19:45;5.20;;;3.63;;
2326;SDS011;1174;51.588;7.328;2023-04-01T13:22:19;4.30;;;2.33;;
2326;SDS011;1174;51.588;7.328;2023-04-01T13:24:51;2.70;;;2.47;;
2326;SDS011;1174;51.588;7.328;2023-04-01T13:27:25;3.20;;;2.50;;
2326;SDS011;1174;51.588;7.328;2023-04-01T13:30:02;2.87;;;1.83;;
2326;SDS011;1174;51.588;7.328;2023-04-01T13:32:48;8.30;;;3.90;;
2326;SDS011;1174;51.588;7.328;2023-04-01T13:35:26;4.37;;;3.27;;
2326;SDS011;1174;51.588;7.328;2023-04-01T13:38:04;4.43;;;2.63;;
2326;SDS011;1174;51.588;7.328;2023-04-01T13:40:48;2.93;;;2.73;;
2326;SDS011;1174;51.588;7.328;2023-04-01T13:43:23;7.33;;;3.77;;
2326;SDS011;1174;51.588;7.328;2023-04-01T13:46:05;5.27;;;2.80;;
2326;SDS011;1174;51.588;7.328;2023-04-01T13:57:52;3.10;;;2.60;;
2326;SDS011;1174;51.588;7.328;2023-04-01T14:00:39;5.73;;;4.40;;
2326;SDS011;1174;51.588;7.328;2023-04-01T14:03:27;2.70;;;2.00;;
2326;SDS011;1174;51.588;7.328;2023-04-01T14:06:12;4.70;;;3.40;;
2326;SDS011;1174;51.588;7.328;2023-04-01T14:08:58;4.30;;;2.53;;
2326;SDS011;1174;51.588;7.328;2023-04-01T14:11:50;4.03;;;3.33;;
2326;SDS011;1174;51.588;7.328;2023-04-01T14:14:26;10.03;;;2.80;;
2326;SDS011;1174;51.588;7.328;2023-04-01T14:17:08;4.03;;;2.17;;
2326;SDS011;1174;51.588;7.328;2023-04-01T14:19:50;2.80;;;2.10;;
2326;SDS011;1174;51.588;7.328;2023-04-01T14:22:29;2.80;;;2.10;;
2326;SDS011;1174;51.588;7.328;2023-04-01T14:28:06;3.33;;;1.93;;
2326;SDS011;1174;51.588;7.328;2023-04-01T14:30:46;6.20;;;2.60;;
2326;SDS011;1174;51.588;7.328;2023-04-01T14:33:38;3.27;;;2.30;;
2326;SDS011;1174;51.588;7.328;2023-04-01T14:36:30;2.67;;;2.37;;
2326;SDS011;1174;51.588;7.328;2023-04-01T14:39:12;3.73;;;2.10;;
2326;SDS011;1174;51.588;7.328;2023-04-01T14:41:50;5.57;;;2.90;;
2326;SDS011;1174;51.588;7.328;2023-04-01T14:47:28;4.27;;;3.23;;
2326;SDS011;1174;51.588;7.328;2023-04-01T14:50:14;4.17;;;3.10;;
2326;SDS011;1174;51.588;7.328;2023-04-01T14:52:45;4.00;;;3.07;;
2326;SDS011;1174;51.588;7.328;2023-04-01T14:55:21;10.33;;;3.83;;
2326;SDS011;1174;51.588;7.328;2023-04-01T14:57:58;9.97;;;4.10;;
2326;SDS011;1174;51.588;7.328;2023-04-01T15:03:36;7.30;;;3.57;;
2326;SDS011;1174;51.588;7.328;2023-04-01T15:09:11;3.70;;;3.30;;
2326;SDS011;1174;51.588;7.328;2023-04-01T15:11:46;6.20;;;2.77;;
2326;SDS011;1174;51.588;7.328;2023-04-01T15:14:29;4.87;;;3.33;;
2326;SDS011;1174;51.588;7.328;2023-04-01T15:17:20;4.90;;;2.90;;
2326;SDS011;1174;51.588;7.328;2023-04-01T15:20:01;5.97;;;4.20;;
2326;SDS011;1174;51.588;7.328;2023-04-01T15:22:45;7.20;;;4.57;;
2326;SDS011;1174;51.588;7.328;2023-04-01T15:25:43;8.40;;;4.87;;
2326;SDS011;1174;51.588;7.328;2023-04-01T15:28:33;8.33;;;5.03;;
2326;SDS011;1174;51.588;7.328;2023-04-01T15:31:09;11.20;;;4.40;;
2326;SDS011;1174;51.588;7.328;2023-04-01T15:33:48;6.87;;;4.23;;
2326;SDS011;1174;51.588;7.328;2023-04-01T15:36:28;6.17;;;3.90;;
2326;SDS011;1174;51.588;7.328;2023-04-01T15:39:05;6.23;;;4.57;;
2326;SDS011;1174;51.588;7.328;2023-04-01T15:41:41;8.47;;;4.60;;
2326;SDS011;1174;51.588;7.328;2023-04-01T15:44:26;5.70;;;3.70;;
2326;SDS011;1174;51.588;7.328;2023-04-01T15:47:08;6.10;;;3.70;;
2326;SDS011;1174;51.588;7.328;2023-04-01T15:52:57;5.47;;;3.40;;
2326;SDS011;1174;51.588;7.328;2023-04-01T15:55:33;9.20;;;3.43;;
2326;SDS011;1174;51.588;7.328;2023-04-01T15:58:19;5.70;;;3.80;;
2326;SDS011;1174;51.588;7.328;2023-04-01T16:01:02;5.90;;;4.13;;
2326;SDS011;1174;51.588;7.328;2023-04-01T16:03:39;4.90;;;3.50;;
2326;SDS011;1174;51.588;7.328;2023-04-01T16:06:17;5.63;;;4.67;;
2326;SDS011;1174;51.588;7.328;2023-04-01T16:09:18;6.90;;;3.93;;
2326;SDS011;1174;51.588;7.328;2023-04-01T16:12:04;4.70;;;3.87;;
2326;SDS011;1174;51.588;7.328;2023-04-01T16:14:39;8.60;;;4.30;;
2326;SDS011;1174;51.588;7.328;2023-04-01T16:17:15;7.17;;;4.97;;
2326;SDS011;1174;51.588;7.328;2023-04-01T16:19:59;5.57;;;4.10;;
2326;SDS011;1174;51.588;7.328;2023-04-01T16:22:40;7.03;;;3.80;;
2326;SDS011;1174;51.588;7.328;2023-04-01T16:25:18;6.30;;;3.73;;
2326;SDS011;1174;51.588;7.328;2023-04-01T16:27:58;6.70;;;3.30;;
2326;SDS011;1174;51.588;7.328;2023-04-01T16:30:40;4.63;;;3.20;;
2326;SDS011;1174;51.588;7.328;2023-04-01T16:33:12;9.20;;;4.87;;
2326;SDS011;1174;51.588;7.328;2023-04-01T16:35:46;5.77;;;3.60;;
2326;SDS011;1174;51.588;7.328;2023-04-01T16:38:22;7.67;;;4.00;;
2326;SDS011;1174;51.588;7.328;2023-04-01T16:40:58;5.37;;;3.37;;
2326;SDS011;1174;51.588;7.328;2023-04-01T16:43:38;5.77;;;3.20;;
2326;SDS011;1174;51.588;7.328;2023-04-01T16:46:17;4.20;;;2.33;;
2326;SDS011;1174;51.588;7.328;2023-04-01T16:48:57;5.57;;;2.73;;
2326;SDS011;1174;51.588;7.328;2023-04-01T16:51:31;4.07;;;2.00;;
2326;SDS011;1174;51.588;7.328;2023-04-01T16:54:06;4.50;;;2.63;;
2326;SDS011;1174;51.588;7.328;2023-04-01T16:56:42;2.30;;;1.90;;
2326;SDS011;1174;51.588;7.328;2023-04-01T16:59:17;4.27;;;3.43;;
2326;SDS011;1174;51.588;7.328;2023-04-01T17:01:50;4.40;;;2.97;;
2326;SDS011;1174;51.588;7.328;2023-04-01T17:04:23;5.87;;;3.97;;
2326;SDS011;1174;51.588;7.328;2023-04-01T17:07:00;7.43;;;3.20;;
2326;SDS011;1174;51.588;7.328;2023-04-01T17:09:39;6.03;;;3.10;;
2326;SDS011;1174;51.588;7.328;2023-04-01T17:12:19;4.97;;;2.73;;
2326;SDS011;1174;51.588;7.328;2023-04-01T17:14:54;9.03;;;3.40;;
2326;SDS011;1174;51.588;7.328;2023-04-01T17:17:34;4.20;;;3.10;;
2326;SDS011;1174;51.588;7.328;2023-04-01T17:23:12;10.50;;;4.97;;
2326;SDS011;1174;51.588;7.328;2023-04-01T17:25:50;5.37;;;4.77;;
2326;SDS011;1174;51.588;7.328;2023-04-01T17:28:32;7.70;;;4.00;;
2326;SDS011;1174;51.588;7.328;2023-04-01T17:31:10;8.63;;;6.17;;
2326;SDS011;1174;51.588;7.328;2023-04-01T17:33:49;6.87;;;4.73;;
2326;SDS011;1174;51.588;7.328;2023-04-01T17:36:32;4.77;;;4.27;;
2326;SDS011;1174;51.588;7.328;2023-04-01T17:39:21;5.80;;;4.23;;
2326;SDS011;1174;51.588;7.328;2023-04-01T17:41:59;8.00;;;4.47;;
2326;SDS011;1174;51.588;7.328;2023-04-01T17:44:34;7.43;;;4.23;;
2326;SDS011;1174;51.588;7.328;2023-04-01T17:50:08;4.57;;;3.20;;
2326;SDS011;1174;51.588;7.328;2023-04-01T17:52:43;8.37;;;5.77;;
2326;SDS011;1174;51.588;7.328;2023-04-01T17:55:26;8.67;;;5.20;;
2326;SDS011;1174;51.588;7.328;2023-04-01T17:58:28;8.13;;;5.00;;